Time;durP1;ratioP1;P1;durP2;ratioP2;P2;SDS_P1;SDS_P2;PMS_P1;PMS_P2;Temp;Humidity;BMP_temperature;BMP_pressure;BME280_temperature;BME280_humidity;BME280_pressure;Samples;Min_cycle;Max_cycle;Signal;HPM_P1;HPM_P2
2022/01/30 00:00:53;;;;;;;;;;;;;;;4.05;74.97;100662.28;5011252;28;20302;-87
2022/01/30 00:03:19;;;;;;;;;;;;;;;4.04;74.98;100658.81;4994394;28;20033;-85
2022/01/30 00:05:44;;;;;;;;;;;;;;;4.05;74.92;100652.66;4992327;28;19925;-87
2022/01/30 00:08:09;;;;;;;;;;;;;;;4.10;75.32;100650.94;4993256;28;20372;-85
2022/01/30 00:10:39;;;;;;;;;;;;;;;4.10;75.64;100656.16;4992262;28;19929;-87
2022/01/30 00:13:07;;;;;;;;;;;;;;;4.13;75.78;100647.41;4992757;28;20029;-83
2022/01/30 00:18:15;;;;;;;;;;;;;;;4.17;75.84;100650.00;5011162;28;19925;-82
2022/01/30 00:20:44;;;;;;;;;;;;;;;4.13;75.84;100643.06;4992745;28;20044;-83
2022/01/30 00:23:24;;;;;;;;;;;;;;;4.17;75.70;100659.66;4992505;28;19922;-85
2022/01/30 00:25:50;;;;;;;;;;;;;;;4.20;75.71;100664.88;5009688;28;19929;-84
2022/01/30 00:28:18;;;;;;;;;;;;;;;4.20;76.07;100659.63;4985236;28;19968;-83
2022/01/30 00:30:44;;;;;;;;;;;;;;;4.22;76.03;100670.13;5011227;28;19925;-86
2022/01/30 00:33:09;;;;;;;;;;;;;;;4.23;75.91;100679.72;4993627;28;19972;-85
2022/01/30 00:35:36;;;;;;;;;;;;;;;4.26;76.01;100669.22;4993088;28;19926;-87
2022/01/30 00:38:02;;;;;;;;;;;;;;;4.28;76.04;100678.84;5011041;28;19960;-85
2022/01/30 00:40:27;;;;;;;;;;;;;;;4.24;75.79;100671.00;4991903;28;19917;-85
2022/01/30 00:42:52;;;;;;;;;;;;;;;4.30;76.07;100670.97;4993396;28;20055;-85
2022/01/30 00:45:17;;;;;;;;;;;;;;;4.31;76.45;100678.84;4993838;28;19922;-84
2022/01/30 00:47:43;;;;;;;;;;;;;;;4.32;76.58;100675.34;4992261;28;19925;-84
2022/01/30 00:50:08;;;;;;;;;;;;;;;4.34;76.65;100677.94;4992826;28;20373;-85
2022/01/30 00:52:34;;;;;;;;;;;;;;;4.42;76.94;100675.31;4992734;28;19980;-85
2022/01/30 00:54:59;;;;;;;;;;;;;;;4.55;78.33;100670.00;4992549;28;19983;-86
2022/01/30 00:57:24;;;;;;;;;;;;;;;4.67;79.91;100669.06;5011438;28;20017;-85
2022/01/30 00:59:49;;;;;;;;;;;;;;;4.67;81.22;100666.44;4993893;28;19925;-86
2022/01/30 01:02:15;;;;;;;;;;;;;;;4.70;82.20;100676.06;5011343;28;19924;-85
2022/01/30 01:04:41;;;;;;;;;;;;;;;4.69;83.26;100677.84;4993777;28;20418;-83
2022/01/30 01:07:12;;;;;;;;;;;;;;;4.63;84.00;100677.00;4993842;28;19921;-85
2022/01/30 01:09:39;;;;;;;;;;;;;;;4.58;85.10;100665.63;4991794;28;19940;-85
2022/01/30 01:25:44;;;;;;;;;;;;;;;4.02;91.09;100676.31;5012982;28;20053;-85
2022/01/30 01:28:09;;;;;;;;;;;;;;;4.03;93.19;100670.16;4997502;28;20028;-86
2022/01/30 01:30:34;;;;;;;;;;;;;;;4.13;95.06;100666.66;5014373;28;20004;-85
2022/01/30 01:33:02;;;;;;;;;;;;;;;4.28;97.31;100676.22;5013487;28;19921;-85
2022/01/30 01:35:27;;;;;;;;;;;;;;;4.46;100.00;100677.91;4996802;28;20430;-84
2022/01/30 04:19:59;;;;;;;;;;;;;;;4.17;96.21;100804.78;4970123;28;20123;-84
2022/01/30 04:22:25;;;;;;;;;;;;;;;4.08;96.04;100801.31;4972561;28;19937;-81
2022/01/30 04:24:51;;;;;;;;;;;;;;;4.01;95.89;100797.81;4973263;28;19918;-82
2022/01/30 04:27:16;;;;;;;;;;;;;;;3.99;95.74;100808.31;4973143;28;20045;-82
2022/01/30 04:29:41;;;;;;;;;;;;;;;3.96;95.79;100803.06;4973253;28;19918;-82
2022/01/30 04:32:08;;;;;;;;;;;;;;;3.90;96.05;100808.28;4971969;28;19929;-82
2022/01/30 04:34:33;;;;;;;;;;;;;;;3.87;96.28;100818.78;4973164;28;19918;-86
2022/01/30 04:37:04;;;;;;;;;;;;;;;3.88;96.23;100814.38;4972968;28;19918;-85
2022/01/30 04:52:00;;;;;;;;;;;;;;;3.76;96.00;100821.38;4973111;28;20380;-85
2022/01/30 04:53:37;;;;;;;;;;;;;;;3.61;95.80;100832.72;4972832;28;19930;-88
2022/01/30 05:01:53;;;;;;;;;;;;;;;3.48;95.52;100837.91;4966127;28;19922;-82
2022/01/30 05:07:44;;;;;;;;;;;;;;;3.46;95.34;100827.41;4972907;28;19918;-82
2022/01/30 05:09:38;;;;;;;;;;;;;;;3.45;95.01;100820.44;4959980;28;20385;-82
2022/01/30 05:12:03;;;;;;;;;;;;;;;3.41;95.00;100822.16;4972785;28;19949;-83
2022/01/30 05:14:34;;;;;;;;;;;;;;;3.37;95.08;100822.19;4973106;28;19922;-83
2022/01/30 05:16:59;;;;;;;;;;;;;;;3.38;95.01;100822.19;4970811;28;19969;-82
2022/01/30 05:19:28;;;;;;;;;;;;;;;3.40;94.86;100827.44;4987686;28;20320;-86
2022/01/30 05:21:54;;;;;;;;;;;;;;;3.53;96.02;100825.72;4992015;28;20261;-84
2022/01/30 05:24:19;;;;;;;;;;;;;;;3.53;96.56;100831.81;4992229;28;19928;-83
2022/01/30 05:26:45;;;;;;;;;;;;;;;3.47;96.75;100826.56;4991860;28;19918;-85
2022/01/30 05:29:11;;;;;;;;;;;;;;;3.49;96.75;100831.81;4992084;28;19922;-86
2022/01/30 05:31:36;;;;;;;;;;;;;;;3.33;96.87;100837.00;4991024;28;20703;-84
2022/01/30 05:34:02;;;;;;;;;;;;;;;3.37;96.95;100837.91;4991902;28;19922;-81
2022/01/30 05:36:28;;;;;;;;;;;;;;;3.31;96.90;100843.97;4991820;28;19976;-82
2022/01/30 05:38:53;;;;;;;;;;;;;;;3.21;97.06;100847.44;4991841;28;20264;-82
2022/01/30 05:41:19;;;;;;;;;;;;;;;3.21;97.26;100856.16;4991102;28;19922;-87
2022/01/30 05:43:49;;;;;;;;;;;;;;;3.12;97.13;100856.13;4991860;28;19971;-82
2022/01/30 05:46:27;;;;;;;;;;;;;;;3.09;97.33;100854.38;4991962;28;20002;-82
2022/01/30 05:48:52;;;;;;;;;;;;;;;3.12;96.94;100857.88;4991298;28;19921;-83
2022/01/30 05:51:17;;;;;;;;;;;;;;;3.11;96.89;100856.09;4991840;28;20056;-82
2022/01/30 05:53:42;;;;;;;;;;;;;;;3.04;96.87;100849.97;4991909;28;19925;-83
2022/01/30 05:56:11;;;;;;;;;;;;;;;3.03;96.81;100862.19;4992333;28;19922;-82
2022/01/30 05:58:36;;;;;;;;;;;;;;;3.01;96.68;100865.66;4995406;28;19924;-82
2022/01/30 13:55:25;;;;;;;;;;;;;;;4.76;100.00;100864.25;5247647;23;19933;-83
2022/01/30 13:57:56;;;;;;;;;;;;;;;4.79;100.00;100865.09;4998072;28;19926;-82
2022/01/30 14:00:21;;;;;;;;;;;;;;;4.83;100.00;100856.31;4995473;28;19948;-83
2022/01/30 14:02:55;;;;;;;;;;;;;;;4.87;100.00;100855.44;4987797;28;19918;-83
2022/01/30 14:05:21;;;;;;;;;;;;;;;4.90;100.00;100858.06;5005635;28;19922;-82
2022/01/30 14:07:46;;;;;;;;;;;;;;;4.90;100.00;100852.81;5005822;28;20353;-82
2022/01/30 14:10:12;;;;;;;;;;;;;;;4.98;100.00;100854.53;5003666;28;19949;-82
2022/01/30 14:12:39;;;;;;;;;;;;;;;5.01;100.00;100855.41;5005786;28;19965;-82
2022/01/30 14:15:09;;;;;;;;;;;;;;;5.06;100.00;100860.66;5004872;28;19918;-84
2022/01/30 14:17:42;;;;;;;;;;;;;;;5.08;100.00;100856.28;5004224;28;19925;-84
2022/01/30 14:20:10;;;;;;;;;;;;;;;5.07;100.00;100857.13;5005089;28;19917;-84
2022/01/30 14:22:35;;;;;;;;;;;;;;;5.14;100.00;100856.25;5004817;28;20324;-86
2022/01/30 14:25:02;;;;;;;;;;;;;;;5.16;100.00;100843.97;5003209;28;19922;-85
2022/01/30 14:27:27;;;;;;;;;;;;;;;4.43;100.00;100851.13;5005419;28;19984;-86
2022/01/30 14:29:54;;;;;;;;;;;;;;;3.89;100.00;100845.84;5004354;28;19957;-87
2022/01/30 14:32:22;;;;;;;;;;;;;;;3.77;100.00;100845.84;5004297;28;20004;-86
2022/01/30 14:34:49;;;;;;;;;;;;;;;3.61;100.00;100844.94;5004996;28;20202;-82
2022/01/30 14:37:15;;;;;;;;;;;;;;;3.60;100.00;100846.69;5004349;28;20372;-83
2022/01/30 14:39:40;;;;;;;;;;;;;;;3.52;100.00;100853.66;5002791;28;19924;-84
2022/01/30 14:42:09;;;;;;;;;;;;;;;3.40;99.21;100851.00;5003503;28;19918;-83
2022/01/30 14:44:34;;;;;;;;;;;;;;;3.36;98.23;100852.72;5003978;28;19921;-84
2022/01/30 14:47:00;;;;;;;;;;;;;;;3.33;97.22;100849.22;5004653;28;19927;-83
2022/01/30 14:49:26;;;;;;;;;;;;;;;3.22;96.23;100843.94;5004405;28;19918;-83
2022/01/30 14:51:51;;;;;;;;;;;;;;;3.19;95.52;100836.06;5003889;28;19925;-83
2022/01/30 14:54:17;;;;;;;;;;;;;;;3.20;94.91;100833.44;5003022;28;19917;-83
2022/01/30 14:56:42;;;;;;;;;;;;;;;3.17;94.09;100830.81;5004262;28;19976;-84
2022/01/30 14:59:07;;;;;;;;;;;;;;;3.18;93.60;100831.72;5003858;28;19971;-82
2022/01/30 15:01:33;;;;;;;;;;;;;;;3.15;92.99;100829.06;5003743;28;20392;-83
2022/01/30 15:03:58;;;;;;;;;;;;;;;3.08;92.41;100833.41;5003940;28;19973;-83
2022/01/30 15:06:24;;;;;;;;;;;;;;;3.07;91.79;100824.66;5003920;28;19928;-83
2022/01/30 15:08:49;;;;;;;;;;;;;;;3.02;91.22;100823.78;5002879;28;19917;-84
2022/01/30 15:11:14;;;;;;;;;;;;;;;2.96;90.74;100822.88;5003965;28;19943;-82
2022/01/30 15:13:40;;;;;;;;;;;;;;;2.97;90.34;100822.88;5003410;28;19922;-83
2022/01/30 15:16:08;;;;;;;;;;;;;;;2.95;89.64;100813.25;5003432;28;19917;-82
2022/01/30 15:18:42;;;;;;;;;;;;;;;2.86;89.29;100814.09;5003315;28;19921;-82
2022/01/30 15:21:07;;;;;;;;;;;;;;;2.83;89.01;100816.72;5003321;28;20369;-82
2022/01/30 15:23:33;;;;;;;;;;;;;;;2.79;88.42;100809.69;5001959;28;19918;-86
2022/01/30 15:25:58;;;;;;;;;;;;;;;2.76;88.27;100815.81;5003355;28;19924;-83
2022/01/30 15:28:23;;;;;;;;;;;;;;;2.75;88.08;100805.31;5003066;28;19940;-84
2022/01/30 15:30:48;;;;;;;;;;;;;;;2.73;87.73;100808.81;5002918;28;19918;-82
2022/01/30 15:33:13;;;;;;;;;;;;;;;2.69;87.31;100807.00;5003444;28;19957;-83
2022/01/30 15:35:39;;;;;;;;;;;;;;;2.69;87.25;100801.78;5003203;28;20365;-82
2022/01/30 15:38:04;;;;;;;;;;;;;;;2.51;87.54;100802.56;5003750;28;20779;-82
2022/01/30 15:40:30;;;;;;;;;;;;;;;2.57;87.57;100788.66;4984488;28;20304;-82
2022/01/30 15:42:55;;;;;;;;;;;;;;;2.62;87.44;100800.00;5002874;28;20376;-83
2022/01/30 15:50:38;;;;;;;;;;;;;;;2.58;86.86;100795.63;5090514;27;19920;-83
2022/01/30 15:53:03;;;;;;;;;;;;;;;2.60;86.51;100791.28;5122009;28;19927;-85
2022/01/30 15:55:29;;;;;;;;;;;;;;;2.57;86.27;100798.22;5120592;28;19917;-86
2022/01/30 15:57:54;;;;;;;;;;;;;;;2.49;86.18;100795.56;5087948;28;20374;-86
2022/01/30 16:00:20;;;;;;;;;;;;;;;2.48;86.14;100802.53;5089333;28;20278;-86
2022/01/30 16:02:46;;;;;;;;;;;;;;;2.50;86.16;100794.69;5087114;28;19917;-83
2022/01/30 16:05:12;;;;;;;;;;;;;;;2.45;85.86;100799.03;5087918;28;19917;-83
2022/01/30 16:07:37;;;;;;;;;;;;;;;2.42;85.46;100796.41;5088085;28;19920;-84
2022/01/30 16:10:08;;;;;;;;;;;;;;;2.39;85.16;100785.91;5087370;28;19978;-84
2022/01/30 16:17:52;;;;;;;;;;;;;;;2.32;85.26;100788.47;5089045;28;19978;-84
2022/01/30 16:20:18;;;;;;;;;;;;;;;2.21;85.08;100784.91;5087549;28;19959;-83
2022/01/30 16:22:43;;;;;;;;;;;;;;;2.20;85.26;100795.38;5088630;28;19917;-86
2022/01/30 16:25:10;;;;;;;;;;;;;;;2.25;85.23;100788.41;5086032;28;20397;-84
2022/01/30 16:27:35;;;;;;;;;;;;;;;2.14;85.14;100786.63;5087325;28;19970;-83
2022/01/30 16:30:01;;;;;;;;;;;;;;;2.15;85.04;100785.75;5087113;28;20359;-83
2022/01/30 16:32:26;;;;;;;;;;;;;;;2.09;84.97;100782.19;5087345;28;19923;-85
2022/01/30 16:34:52;;;;;;;;;;;;;;;2.09;84.91;100784.81;5088540;28;20324;-84
2022/01/30 16:37:17;;;;;;;;;;;;;;;2.09;84.85;100771.75;5088205;28;19916;-85
2022/01/30 16:39:42;;;;;;;;;;;;;;;2.14;84.67;100777.91;5087204;28;19920;-83
2022/01/30 16:42:07;;;;;;;;;;;;;;;2.09;84.62;100779.59;5088375;28;20054;-84
2022/01/30 16:44:41;;;;;;;;;;;;;;;2.10;84.58;100786.56;5088406;28;20268;-84
2022/01/30 16:49:46;;;;;;;;;;;;;;;2.09;84.24;100771.75;5087703;28;19936;-86
2022/01/30 16:52:12;;;;;;;;;;;;;;;1.99;84.43;100769.09;5121143;28;19916;-84
2022/01/30 16:54:37;;;;;;;;;;;;;;;2.10;84.18;100765.66;5087034;28;19916;-84
2022/01/30 16:57:03;;;;;;;;;;;;;;;2.08;83.79;100765.66;5091944;28;19924;-88
2022/01/30 16:59:28;;;;;;;;;;;;;;;1.96;83.84;100755.97;5120938;28;20338;-85
2022/01/30 17:01:53;;;;;;;;;;;;;;;1.97;84.06;100755.09;5073906;28;20282;-85
2022/01/30 17:04:19;;;;;;;;;;;;;;;1.98;84.01;100748.16;5073080;28;19986;-86
2022/01/30 17:06:45;;;;;;;;;;;;;;;2.04;84.07;100742.94;5074662;28;19971;-84
2022/01/30 17:09:35;;;;;;;;;;;;;;;2.03;83.78;100740.31;5073096;28;19924;-83
2022/01/30 17:12:05;;;;;;;;;;;;;;;1.93;83.90;100737.66;5073089;28;20367;-82
2022/01/30 17:14:30;;;;;;;;;;;;;;;1.99;84.12;100742.03;5106094;28;19917;-82
2022/01/30 17:16:57;;;;;;;;;;;;;;;1.95;84.11;100742.91;5074216;28;20294;-83
2022/01/30 17:19:22;;;;;;;;;;;;;;;2.00;83.91;100739.44;5073665;28;19917;-84
2022/01/30 17:21:47;;;;;;;;;;;;;;;1.92;83.86;100735.03;5072950;28;19978;-83
2022/01/30 17:24:13;;;;;;;;;;;;;;;1.89;83.66;100732.41;5071601;28;20003;-85
2022/01/30 17:26:38;;;;;;;;;;;;;;;1.87;83.51;100721.94;5074055;28;19920;-89
2022/01/30 17:29:04;;;;;;;;;;;;;;;1.84;83.43;100729.75;5106608;28;19966;-87
2022/01/30 17:31:29;;;;;;;;;;;;;;;1.91;83.47;100731.53;5072787;28;19960;-84
2022/01/30 17:33:54;;;;;;;;;;;;;;;1.86;83.35;100733.22;5106603;28;19924;-83
2022/01/30 17:36:19;;;;;;;;;;;;;;;1.87;83.48;100729.78;5106497;28;19926;-84
2022/01/30 17:38:44;;;;;;;;;;;;;;;1.87;83.42;100734.09;5071426;28;19947;-84
2022/01/30 17:41:10;;;;;;;;;;;;;;;1.87;83.14;100731.47;5073819;28;19913;-83
2022/01/30 17:43:35;;;;;;;;;;;;;;;1.84;83.15;100734.09;5073934;28;20264;-82
2022/01/30 17:46:00;;;;;;;;;;;;;;;1.79;83.34;100721.88;5064672;28;20003;-84
2022/01/30 17:48:26;;;;;;;;;;;;;;;1.82;83.23;100715.78;5106082;28;19912;-84
2022/01/30 17:50:51;;;;;;;;;;;;;;;1.84;83.12;100705.34;5072469;28;20359;-85
2022/01/30 17:53:17;;;;;;;;;;;;;;;1.79;83.03;100697.47;5073663;28;20003;-86
2022/01/30 17:55:43;;;;;;;;;;;;;;;1.83;82.88;100701.84;5072215;28;19995;-84
2022/01/30 17:58:08;;;;;;;;;;;;;;;1.78;82.76;100688.75;5073496;28;19931;-83
2022/01/30 18:00:34;;;;;;;;;;;;;;;1.80;82.74;100693.97;5072573;28;20360;-83
2022/01/30 18:02:59;;;;;;;;;;;;;;;1.82;82.69;100692.28;5072124;28;20011;-85
2022/01/30 18:05:24;;;;;;;;;;;;;;;1.80;82.45;100691.38;5071986;28;19920;-84
2022/01/30 18:07:50;;;;;;;;;;;;;;;1.78;82.24;100685.25;5071920;28;19916;-83
2022/01/30 18:10:16;;;;;;;;;;;;;;;1.78;82.25;100673.06;5070436;28;19924;-83
2022/01/30 18:12:41;;;;;;;;;;;;;;;1.71;82.18;100665.16;5071048;28;19916;-83
2022/01/30 18:15:08;;;;;;;;;;;;;;;1.74;82.20;100663.47;5105526;28;20390;-83
2022/01/30 18:17:33;;;;;;;;;;;;;;;1.79;82.03;100663.50;5088489;28;19969;-84
2022/01/30 18:19:59;;;;;;;;;;;;;;;1.72;82.17;100664.31;5071511;28;19920;-82
2022/01/30 18:22:24;;;;;;;;;;;;;;;1.74;82.12;100666.06;5071616;28;19916;-83
2022/01/30 18:24:50;;;;;;;;;;;;;;;1.79;81.94;100666.13;5071714;28;19923;-83
2022/01/30 18:27:17;;;;;;;;;;;;;;;1.75;81.77;100670.41;5072943;28;19920;-83
2022/01/30 18:29:43;;;;;;;;;;;;;;;1.76;81.72;100663.47;5071503;28;19921;-87
2022/01/30 18:32:08;;;;;;;;;;;;;;;1.73;81.59;100661.72;5073184;28;19928;-83
2022/01/30 18:34:35;;;;;;;;;;;;;;;1.74;81.52;100659.97;5071453;28;19923;-83
2022/01/30 18:37:06;;;;;;;;;;;;;;;1.74;81.53;100659.97;5071538;28;19917;-84
2022/01/30 18:39:42;;;;;;;;;;;;;;;1.72;81.46;100659.94;5071059;28;19920;-82
2022/01/30 18:42:08;;;;;;;;;;;;;;;1.74;81.41;100665.19;5072492;28;20303;-84
2022/01/30 18:44:34;;;;;;;;;;;;;;;1.74;81.39;100645.19;5088057;28;19916;-82
2022/01/30 18:46:59;;;;;;;;;;;;;;;1.76;81.28;100660.88;5072538;28;19921;-82
2022/01/30 18:49:25;;;;;;;;;;;;;;;1.76;81.38;100653.88;5104726;28;19929;-86
2022/01/30 18:51:50;;;;;;;;;;;;;;;1.79;81.24;100653.06;5104976;28;20008;-82
2022/01/30 18:54:16;;;;;;;;;;;;;;;1.76;81.34;100655.63;5070796;28;19917;-82
2022/01/30 18:56:42;;;;;;;;;;;;;;;1.73;81.38;100642.56;5072471;28;19916;-83
2022/01/30 18:59:07;;;;;;;;;;;;;;;1.69;81.23;100640.75;5104956;28;19916;-83
2022/01/30 19:01:32;;;;;;;;;;;;;;;1.74;81.01;100639.06;5072222;28;19974;-83
2022/01/30 19:03:58;;;;;;;;;;;;;;;1.76;80.99;100642.56;5072356;28;19926;-82
2022/01/30 19:06:25;;;;;;;;;;;;;;;1.76;80.75;100632.13;5072259;28;20362;-82
2022/01/30 19:08:50;;;;;;;;;;;;;;;1.78;80.41;100627.78;5100636;28;20474;-82
2022/01/30 19:11:15;;;;;;;;;;;;;;;1.72;80.55;100627.72;5071181;28;19920;-83
2022/01/30 19:13:41;;;;;;;;;;;;;;;1.72;80.34;100641.66;5071410;28;19924;-83
2022/01/30 19:16:06;;;;;;;;;;;;;;;1.74;80.43;100639.06;5072219;28;19921;-82
2022/01/30 19:18:31;;;;;;;;;;;;;;;1.75;80.15;100640.81;5071372;28;19924;-85
2022/01/30 19:20:57;;;;;;;;;;;;;;;1.74;79.99;100644.28;5072053;28;19916;-82
2022/01/30 19:23:23;;;;;;;;;;;;;;;1.74;79.81;100637.34;5071311;28;19928;-85
2022/01/30 19:25:49;;;;;;;;;;;;;;;1.70;79.76;100627.72;5070418;28;19924;-84
2022/01/30 19:28:14;;;;;;;;;;;;;;;1.69;79.84;100623.38;5071575;28;19928;-83
2022/01/30 19:30:40;;;;;;;;;;;;;;;1.75;79.71;100628.59;5071100;28;19943;-84
2022/01/30 19:33:06;;;;;;;;;;;;;;;1.76;79.64;100626.91;5070414;28;19924;-84
2022/01/30 19:35:33;;;;;;;;;;;;;;;1.74;79.72;100620.75;5069794;28;19925;-84
2022/01/30 19:37:59;;;;;;;;;;;;;;;1.69;79.58;100619.88;5071425;28;19930;-84
2022/01/30 19:40:25;;;;;;;;;;;;;;;1.71;79.42;100620.75;5070503;28;20011;-86
2022/01/30 19:42:52;;;;;;;;;;;;;;;1.72;79.12;100601.59;5104117;28;19939;-84
2022/01/30 19:45:18;;;;;;;;;;;;;;;1.68;78.99;100597.22;5069488;28;19926;-84
2022/01/30 19:47:49;;;;;;;;;;;;;;;1.71;78.80;100589.38;5073953;28;19924;-86
2022/01/30 19:50:15;;;;;;;;;;;;;;;1.68;78.82;100581.56;5069245;28;20385;-87
2022/01/30 19:52:40;;;;;;;;;;;;;;;1.68;78.56;100581.56;5071238;28;19999;-84
2022/01/30 19:55:06;;;;;;;;;;;;;;;1.66;78.41;100578.03;5069532;28;19923;-84
2022/01/30 19:57:32;;;;;;;;;;;;;;;1.68;78.41;100565.88;5070008;28;19998;-84
2022/01/30 19:59:57;;;;;;;;;;;;;;;1.69;78.28;100562.38;5070529;28;20387;-82
2022/01/30 20:02:22;;;;;;;;;;;;;;;1.66;78.21;100547.56;5068594;28;19924;-83
2022/01/30 20:04:48;;;;;;;;;;;;;;;1.70;78.02;100538.00;5071036;28;20383;-83
2022/01/30 20:07:14;;;;;;;;;;;;;;;1.68;77.88;100537.13;5068472;28;19927;-82
2022/01/30 20:09:39;;;;;;;;;;;;;;;1.70;77.66;100538.00;5101673;28;19920;-83
2022/01/30 20:12:05;;;;;;;;;;;;;;;1.71;77.60;100538.03;5070924;28;19920;-81
2022/01/30 20:14:32;;;;;;;;;;;;;;;1.67;77.48;100538.00;5085413;28;19931;-81
2022/01/30 20:16:57;;;;;;;;;;;;;;;1.67;77.39;100533.63;5070128;28;19924;-85
2022/01/30 20:19:23;;;;;;;;;;;;;;;1.68;77.47;100530.16;5069298;28;20355;-81
2022/01/30 20:21:48;;;;;;;;;;;;;;;1.71;77.59;100532.78;5103186;28;20378;-85
2022/01/30 20:24:13;;;;;;;;;;;;;;;1.73;77.43;100531.06;5069254;28;19921;-81
2022/01/30 20:26:38;;;;;;;;;;;;;;;1.71;77.48;100517.13;5069438;28;20003;-81
2022/01/30 20:29:05;;;;;;;;;;;;;;;1.75;77.42;100504.94;5068413;28;19990;-80
2022/01/30 20:31:30;;;;;;;;;;;;;;;1.74;77.07;100495.34;5069888;28;19935;-82
2022/01/30 20:33:56;;;;;;;;;;;;;;;1.74;76.94;100497.94;5069016;28;19921;-81
2022/01/30 20:36:24;;;;;;;;;;;;;;;1.73;76.91;100504.91;5104868;28;19917;-81
2022/01/30 20:38:49;;;;;;;;;;;;;;;1.73;76.93;100494.47;5072379;28;19924;-81
2022/01/30 20:41:14;;;;;;;;;;;;;;;1.73;76.57;100498.84;5072501;28;20012;-81
2022/01/30 20:43:40;;;;;;;;;;;;;;;1.71;76.50;100491.00;5073414;28;19924;-80
2022/01/30 20:46:06;;;;;;;;;;;;;;;1.71;76.44;100491.00;5072054;28;19920;-81
2022/01/30 20:48:31;;;;;;;;;;;;;;;1.74;76.25;100487.50;5072407;28;20372;-82
2022/01/30 20:50:57;;;;;;;;;;;;;;;1.72;76.11;100491.84;5071363;28;19955;-82
2022/01/30 20:53:22;;;;;;;;;;;;;;;1.74;75.88;100487.50;5074413;28;20450;-81
2022/01/30 20:55:47;;;;;;;;;;;;;;;1.74;75.74;100483.16;5072571;28;20332;-83
2022/01/30 20:58:12;;;;;;;;;;;;;;;1.72;75.55;100489.25;5073569;28;20058;-84
2022/01/30 21:00:38;;;;;;;;;;;;;;;1.72;75.44;100484.88;5102624;28;19924;-81
2022/01/30 21:03:03;;;;;;;;;;;;;;;1.76;75.36;100484.03;5072275;28;19999;-80
2022/01/30 21:05:30;;;;;;;;;;;;;;;1.77;75.14;100493.63;5072996;28;20769;-80
2022/01/30 21:07:55;;;;;;;;;;;;;;;1.77;75.07;100490.13;5073756;28;19970;-82
2022/01/30 21:10:22;;;;;;;;;;;;;;;1.80;74.95;100487.53;5103014;28;19920;-83
2022/01/30 21:12:53;;;;;;;;;;;;;;;1.76;74.95;100485.78;5073844;28;19920;-82
2022/01/30 21:15:20;;;;;;;;;;;;;;;1.81;74.93;100478.84;5073512;28;20272;-83
2022/01/30 21:17:46;;;;;;;;;;;;;;;1.82;74.68;100467.53;5073389;28;19929;-82
2022/01/30 21:20:12;;;;;;;;;;;;;;;1.79;74.62;100459.66;5071461;28;20003;-83
2022/01/30 21:22:37;;;;;;;;;;;;;;;1.82;74.65;100457.06;5103720;28;19920;-83
2022/01/30 21:25:03;;;;;;;;;;;;;;;1.81;74.54;100453.56;5071660;28;19920;-86
2022/01/30 21:27:28;;;;;;;;;;;;;;;1.83;74.38;100440.50;5071099;28;19970;-85
2022/01/30 21:29:53;;;;;;;;;;;;;;;1.83;74.14;100443.13;5071723;28;19949;-86
2022/01/30 21:32:19;;;;;;;;;;;;;;;1.85;73.91;100437.91;5071493;28;20394;-85
2022/01/30 21:34:44;;;;;;;;;;;;;;;1.85;73.81;100430.94;5105673;28;19920;-84
2022/01/30 21:37:10;;;;;;;;;;;;;;;1.87;73.77;100416.13;5103693;28;19927;-86
2022/01/30 21:39:36;;;;;;;;;;;;;;;1.91;73.80;100410.03;5070328;28;19924;-85
2022/01/30 21:42:04;;;;;;;;;;;;;;;1.94;73.76;100401.34;5072764;28;19920;-87
2022/01/30 21:44:29;;;;;;;;;;;;;;;1.93;73.72;100400.47;5072542;28;19932;-85
2022/01/30 21:46:54;;;;;;;;;;;;;;;1.94;73.71;100396.09;5071220;28;19920;-85
2022/01/30 21:49:20;;;;;;;;;;;;;;;1.99;73.81;100391.75;5072697;28;19920;-85
2022/01/30 21:51:45;;;;;;;;;;;;;;;1.98;73.59;100380.44;5071480;28;20375;-86
2022/01/30 21:54:10;;;;;;;;;;;;;;;1.99;73.46;100376.97;5069759;28;19924;-88
2022/01/30 21:56:36;;;;;;;;;;;;;;;2.03;73.31;100363.88;5071125;28;19920;-84
2022/01/30 21:59:01;;;;;;;;;;;;;;;2.00;73.22;100360.38;5069701;28;19927;-87
2022/01/30 22:01:26;;;;;;;;;;;;;;;2.00;73.11;100334.25;5104784;28;19960;-86
2022/01/30 22:03:51;;;;;;;;;;;;;;;2.03;72.91;100320.31;5072585;28;19999;-82
2022/01/30 22:06:17;;;;;;;;;;;;;;;2.10;72.72;100308.13;5071949;28;19924;-84
2022/01/30 22:08:43;;;;;;;;;;;;;;;2.09;72.64;100288.06;5070281;28;19920;-82
2022/01/30 22:11:08;;;;;;;;;;;;;;;2.08;72.56;100270.66;5072285;28;20436;-83
2022/01/30 22:13:40;;;;;;;;;;;;;;;2.10;72.35;100261.91;5071251;28;19989;-83
2022/01/30 22:16:08;;;;;;;;;;;;;;;2.10;72.27;100248.84;5102630;28;20002;-86
2022/01/30 22:18:33;;;;;;;;;;;;;;;2.14;72.01;100244.50;5069161;28;19963;-83
2022/01/30 22:20:58;;;;;;;;;;;;;;;2.15;71.91;100241.88;5071471;28;19959;-85
2022/01/30 22:23:25;;;;;;;;;;;;;;;2.15;72.08;100243.63;5070239;28;19927;-87
2022/01/30 22:25:50;;;;;;;;;;;;;;;2.18;71.93;100244.47;5069277;28;20019;-85
2022/01/30 22:28:16;;;;;;;;;;;;;;;2.20;71.67;100235.78;5070824;28;20346;-85
2022/01/30 22:30:41;;;;;;;;;;;;;;;2.23;71.61;100230.53;5070568;28;20028;-83
2022/01/30 22:33:07;;;;;;;;;;;;;;;2.25;71.47;100226.16;5070680;28;19966;-83
2022/01/30 22:35:33;;;;;;;;;;;;;;;2.24;71.49;100219.22;5070122;28;19966;-83
2022/01/30 22:37:59;;;;;;;;;;;;;;;2.28;71.66;100207.84;5071619;28;20326;-83
2022/01/30 22:40:24;;;;;;;;;;;;;;;2.27;71.38;100204.38;5068773;28;19921;-83
2022/01/30 22:42:50;;;;;;;;;;;;;;;2.33;71.54;100191.28;5070153;28;20558;-83
2022/01/30 22:45:16;;;;;;;;;;;;;;;2.34;71.22;100192.16;5069467;28;19950;-83
2022/01/30 22:47:41;;;;;;;;;;;;;;;2.33;71.16;100196.53;5071446;28;19924;-85
2022/01/30 22:50:08;;;;;;;;;;;;;;;2.35;71.04;100199.13;5069234;28;19931;-82
2022/01/30 22:52:34;;;;;;;;;;;;;;;2.32;71.04;100194.78;5069616;28;19920;-83
2022/01/30 22:54:59;;;;;;;;;;;;;;;2.33;70.86;100188.69;5068377;28;20276;-83
2022/01/30 22:57:24;;;;;;;;;;;;;;;2.32;71.03;100189.53;5101787;28;19928;-82
2022/01/30 22:59:50;;;;;;;;;;;;;;;2.35;71.07;100194.75;5069756;28;20359;-85
2022/01/30 23:02:15;;;;;;;;;;;;;;;2.31;70.93;100208.75;5069746;28;19955;-84
2022/01/30 23:04:42;;;;;;;;;;;;;;;2.28;70.81;100200.91;5069501;28;20383;-83
2022/01/30 23:07:08;;;;;;;;;;;;;;;2.30;70.92;100185.22;5070521;28;20011;-86
2022/01/30 23:09:33;;;;;;;;;;;;;;;2.33;70.87;100183.44;5068381;28;20054;-86
2022/01/30 23:11:58;;;;;;;;;;;;;;;2.35;70.73;100184.31;5071083;28;20570;-87
2022/01/30 23:14:24;;;;;;;;;;;;;;;2.33;70.66;100196.53;5071183;28;19928;-83
2022/01/30 23:16:49;;;;;;;;;;;;;;;2.36;70.57;100191.28;5070020;28;19927;-84
2022/01/30 23:19:14;;;;;;;;;;;;;;;2.36;70.57;100193.00;5070100;28;19916;-83
2022/01/30 23:21:39;;;;;;;;;;;;;;;2.38;70.65;100203.47;5103957;28;19917;-84
2022/01/30 23:24:05;;;;;;;;;;;;;;;2.38;70.75;100198.22;5068008;28;19920;-87
2022/01/30 23:26:32;;;;;;;;;;;;;;;2.34;70.49;100203.47;5103876;28;19921;-83
2022/01/30 23:28:57;;;;;;;;;;;;;;;2.41;70.60;100211.31;5070690;28;19920;-87
2022/01/30 23:31:23;;;;;;;;;;;;;;;2.43;70.43;100191.28;5069931;28;20019;-83
2022/01/30 23:33:48;;;;;;;;;;;;;;;2.42;70.22;100184.28;5070884;28;20378;-83
2022/01/30 23:36:14;;;;;;;;;;;;;;;2.35;70.12;100194.75;5071190;28;19920;-83
2022/01/30 23:38:44;;;;;;;;;;;;;;;2.40;69.93;100191.28;5068472;28;20015;-85
